sensor_id;sensor_type;location;lat;lon;timestamp;pressure;altitude;pressure_sealevel;temperature;humidity
80323;BME280;69636;52.372;13.610;2023-07-02T00:01:59;100070.00;;;17.57;88.40
80323;BME280;69636;52.372;13.610;2023-07-02T00:04:28;100080.09;;;17.61;87.80
80323;BME280;69636;52.372;13.610;2023-07-02T00:06:55;100079.88;;;17.63;88.19
80323;BME280;69636;52.372;13.610;2023-07-02T00:09:23;100072.63;;;17.63;87.86
80323;BME280;69636;52.372;13.610;2023-07-02T00:11:52;100076.34;;;17.62;87.64
80323;BME280;69636;52.372;13.610;2023-07-02T00:14:19;100080.44;;;17.72;87.28
80323;BME280;69636;52.372;13.610;2023-07-02T00:16:47;100069.13;;;17.63;87.40
80323;BME280;69636;52.372;13.610;2023-07-02T00:19:15;100074.31;;;17.65;87.53
80323;BME280;69636;52.372;13.610;2023-07-02T00:21:46;100080.09;;;17.61;87.00
80323;BME280;69636;52.372;13.610;2023-07-02T00:24:13;100081.34;;;17.66;86.96
80323;BME280;69636;52.372;13.610;2023-07-02T00:26:42;100076.72;;;17.73;86.95
80323;BME280;69636;52.372;13.610;2023-07-02T00:29:11;100083.56;;;17.69;86.79
80323;BME280;69636;52.372;13.610;2023-07-02T00:31:39;100076.78;;;17.66;87.34
80323;BME280;69636;52.372;13.610;2023-07-02T00:34:06;100081.91;;;17.68;86.81
80323;BME280;69636;52.372;13.610;2023-07-02T00:36:34;100080.69;;;17.63;87.03
80323;BME280;69636;52.372;13.610;2023-07-02T00:39:05;100082.16;;;17.66;87.23
80323;BME280;69636;52.372;13.610;2023-07-02T00:41:36;100083.38;;;17.63;87.39
80323;BME280;69636;52.372;13.610;2023-07-02T00:44:03;100079.25;;;17.61;87.77
80323;BME280;69636;52.372;13.610;2023-07-02T00:46:31;100087.09;;;17.62;87.65
80323;BME280;69636;52.372;13.610;2023-07-02T00:48:59;100083.59;;;17.62;87.42
80323;BME280;69636;52.372;13.610;2023-07-02T00:51:29;100083.81;;;17.60;87.98
80323;BME280;69636;52.372;13.610;2023-07-02T00:53:58;100088.78;;;17.57;87.79
80323;BME280;69636;52.372;13.610;2023-07-02T00:56:27;100090.22;;;17.59;87.96
80323;BME280;69636;52.372;13.610;2023-07-02T00:58:55;100086.50;;;17.60;87.61
80323;BME280;69636;52.372;13.610;2023-07-02T01:01:24;100092.06;;;17.59;87.68
80323;BME280;69636;52.372;13.610;2023-07-02T01:03:53;100083.38;;;17.63;87.76
80323;BME280;69636;52.372;13.610;2023-07-02T01:06:24;100089.00;;;17.55;87.52
80323;BME280;69636;52.372;13.610;2023-07-02T01:08:54;100090.06;;;17.48;87.44
80323;BME280;69636;52.372;13.610;2023-07-02T01:11:25;100085.94;;;17.45;87.31
80323;BME280;69636;52.372;13.610;2023-07-02T01:14:00;100093.81;;;17.40;87.35
80323;BME280;69636;52.372;13.610;2023-07-02T01:16:29;100083.69;;;17.42;87.05
80323;BME280;69636;52.372;13.610;2023-07-02T01:18:58;100090.06;;;17.41;87.42
80323;BME280;69636;52.372;13.610;2023-07-02T01:21:28;100091.38;;;17.32;87.50
80323;BME280;69636;52.372;13.610;2023-07-02T01:23:57;100097.91;;;17.43;87.12
80323;BME280;69636;52.372;13.610;2023-07-02T01:26:28;100099.56;;;17.44;86.88
80323;BME280;69636;52.372;13.610;2023-07-02T01:28:56;100094.66;;;17.41;86.62
80323;BME280;69636;52.372;13.610;2023-07-02T01:31:24;100100.38;;;17.44;85.89
80323;BME280;69636;52.372;13.610;2023-07-02T01:33:51;100105.59;;;17.39;86.21
80323;BME280;69636;52.372;13.610;2023-07-02T01:36:19;100109.47;;;17.43;86.01
80323;BME280;69636;52.372;13.610;2023-07-02T01:38:48;100112.75;;;17.45;85.75
80323;BME280;69636;52.372;13.610;2023-07-02T01:41:16;100104.97;;;17.37;86.03
80323;BME280;69636;52.372;13.610;2023-07-02T01:43:44;100109.09;;;17.40;86.10
80323;BME280;69636;52.372;13.610;2023-07-02T01:46:11;100110.75;;;17.41;85.98
80323;BME280;69636;52.372;13.610;2023-07-02T01:48:40;100109.72;;;17.35;86.34
80323;BME280;69636;52.372;13.610;2023-07-02T01:51:07;100115.88;;;17.42;85.67
80323;BME280;69636;52.372;13.610;2023-07-02T01:53:36;100112.59;;;17.40;85.21
80323;BME280;69636;52.372;13.610;2023-07-02T01:56:06;100118.81;;;17.34;85.51
80323;BME280;69636;52.372;13.610;2023-07-02T01:58:34;100118.22;;;17.25;85.53
80323;BME280;69636;52.372;13.610;2023-07-02T02:01:01;100128.56;;;17.22;85.74
80323;BME280;69636;52.372;13.610;2023-07-02T02:03:29;100129.38;;;17.22;85.79
80323;BME280;69636;52.372;13.610;2023-07-02T02:05:57;100121.53;;;17.21;85.74
80323;BME280;69636;52.372;13.610;2023-07-02T02:08:26;100127.31;;;17.18;86.00
80323;BME280;69636;52.372;13.610;2023-07-02T02:10:54;100136.41;;;17.17;86.31
80323;BME280;69636;52.372;13.610;2023-07-02T02:13:24;100132.69;;;17.18;85.30
80323;BME280;69636;52.372;13.610;2023-07-02T02:15:54;100133.91;;;17.22;85.09
80323;BME280;69636;52.372;13.610;2023-07-02T02:18:22;100124.22;;;17.21;83.99
80323;BME280;69636;52.372;13.610;2023-07-02T02:20:49;100126.50;;;17.17;84.45
80323;BME280;69636;52.372;13.610;2023-07-02T02:23:17;100129.78;;;17.19;83.82
80323;BME280;69636;52.372;13.610;2023-07-02T02:25:44;100118.66;;;17.16;83.91
80323;BME280;69636;52.372;13.610;2023-07-02T02:28:13;100129.84;;;17.13;84.40
80323;BME280;69636;52.372;13.610;2023-07-02T02:30:42;100140.78;;;17.11;84.14
80323;BME280;69636;52.372;13.610;2023-07-02T02:33:10;100138.91;;;17.12;83.92
80323;BME280;69636;52.372;13.610;2023-07-02T02:35:37;100141.75;;;17.17;83.55
80323;BME280;69636;52.372;13.610;2023-07-02T02:38:05;100142.22;;;17.14;83.91
80323;BME280;69636;52.372;13.610;2023-07-02T02:40:32;100142.84;;;17.03;84.04
80323;BME280;69636;52.372;13.610;2023-07-02T02:43:00;100144.91;;;17.01;84.32
80323;BME280;69636;52.372;13.610;2023-07-02T02:45:27;100147.59;;;17.01;84.45
80323;BME280;69636;52.372;13.610;2023-07-02T02:47:57;100146.34;;;17.10;84.06
80323;BME280;69636;52.372;13.610;2023-07-02T02:50:25;100146.97;;;16.99;83.58
80323;BME280;69636;52.372;13.610;2023-07-02T02:52:52;100150.47;;;17.06;83.60
80323;BME280;69636;52.372;13.610;2023-07-02T02:55:20;100138.09;;;17.05;82.98
80323;BME280;69636;52.372;13.610;2023-07-02T02:57:48;100138.53;;;17.02;83.09
80323;BME280;69636;52.372;13.610;2023-07-02T03:00:19;100133.56;;;16.92;83.34
80323;BME280;69636;52.372;13.610;2023-07-02T03:02:46;100131.50;;;16.94;83.13
80323;BME280;69636;52.372;13.610;2023-07-02T03:05:15;100138.97;;;16.85;83.78
80323;BME280;69636;52.372;13.610;2023-07-02T03:07:43;100142.69;;;16.78;84.07
80323;BME280;69636;52.372;13.610;2023-07-02T03:10:11;100142.69;;;16.71;84.13
80323;BME280;69636;52.372;13.610;2023-07-02T03:12:38;100157.75;;;16.72;84.36
80323;BME280;69636;52.372;13.610;2023-07-02T03:15:06;100150.53;;;16.66;84.04
80323;BME280;69636;52.372;13.610;2023-07-02T03:17:35;100157.13;;;16.70;84.59
80323;BME280;69636;52.372;13.610;2023-07-02T03:20:05;100157.53;;;16.60;84.83
80323;BME280;69636;52.372;13.610;2023-07-02T03:22:34;100145.97;;;16.60;84.86
80323;BME280;69636;52.372;13.610;2023-07-02T03:25:04;100153.41;;;16.58;85.05
80323;BME280;69636;52.372;13.610;2023-07-02T03:27:31;100154.22;;;16.58;85.44
80323;BME280;69636;52.372;13.610;2023-07-02T03:29:59;100154.03;;;16.60;85.44
80323;BME280;69636;52.372;13.610;2023-07-02T03:32:27;100157.13;;;16.57;85.94
80323;BME280;69636;52.372;13.610;2023-07-02T03:34:54;100157.13;;;16.57;85.83
80323;BME280;69636;52.372;13.610;2023-07-02T03:37:21;100159.59;;;16.58;85.59
80323;BME280;69636;52.372;13.610;2023-07-02T03:39:50;100166.41;;;16.61;85.62
80323;BME280;69636;52.372;13.610;2023-07-02T03:42:19;100165.38;;;16.62;86.29
80323;BME280;69636;52.372;13.610;2023-07-02T03:44:47;100162.69;;;16.62;85.87
80323;BME280;69636;52.372;13.610;2023-07-02T03:47:15;100157.13;;;16.63;86.46
80323;BME280;69636;52.372;13.610;2023-07-02T03:49:42;100157.94;;;16.64;86.30
80323;BME280;69636;52.372;13.610;2023-07-02T03:52:09;100157.94;;;16.64;86.53
80323;BME280;69636;52.372;13.610;2023-07-02T03:54:39;100163.72;;;16.61;86.17
80323;BME280;69636;52.372;13.610;2023-07-02T03:57:08;100168.25;;;16.67;86.39
80323;BME280;69636;52.372;13.610;2023-07-02T03:59:37;100168.47;;;16.66;86.28
80323;BME280;69636;52.372;13.610;2023-07-02T04:02:04;100177.13;;;16.68;86.23
80323;BME280;69636;52.372;13.610;2023-07-02T04:04:32;100164.53;;;16.68;86.31
80323;BME280;69636;52.372;13.610;2023-07-02T04:07:01;100173.19;;;16.70;85.63
80323;BME280;69636;52.372;13.610;2023-07-02T04:09:28;100176.72;;;16.64;85.98
80323;BME280;69636;52.372;13.610;2023-07-02T04:11:56;100173.00;;;16.65;85.65
80323;BME280;69636;52.372;13.610;2023-07-02T04:14:25;100188.88;;;16.67;86.27
80323;BME280;69636;52.372;13.610;2023-07-02T04:16:53;100202.28;;;16.67;86.22
80323;BME280;69636;52.372;13.610;2023-07-02T04:19:20;100205.38;;;16.70;85.38
80323;BME280;69636;52.372;13.610;2023-07-02T04:21:48;100200.00;;;16.70;85.51
80323;BME280;69636;52.372;13.610;2023-07-02T04:24:16;100201.25;;;16.81;84.13
80323;BME280;69636;52.372;13.610;2023-07-02T04:26:43;100198.56;;;16.81;84.00
80323;BME280;69636;52.372;13.610;2023-07-02T04:29:32;100207.22;;;16.83;82.46
80323;BME280;69636;52.372;13.610;2023-07-02T04:32:00;100202.03;;;16.94;82.10
80323;BME280;69636;52.372;13.610;2023-07-02T04:34:28;100211.97;;;16.87;81.87
80323;BME280;69636;52.372;13.610;2023-07-02T04:36:55;100213.84;;;16.87;82.57
80323;BME280;69636;52.372;13.610;2023-07-02T04:39:23;100207.81;;;16.98;81.56
80323;BME280;69636;52.372;13.610;2023-07-02T04:41:50;100220.63;;;16.96;81.55
80323;BME280;69636;52.372;13.610;2023-07-02T04:44:18;100223.09;;;16.98;81.28
80323;BME280;69636;52.372;13.610;2023-07-02T04:46:47;100220.63;;;17.03;81.09
80323;BME280;69636;52.372;13.610;2023-07-02T04:49:15;100219.38;;;16.99;81.17
80323;BME280;69636;52.372;13.610;2023-07-02T04:51:43;100217.72;;;16.98;80.65
80323;BME280;69636;52.372;13.610;2023-07-02T04:54:10;100214.00;;;17.05;80.65
80323;BME280;69636;52.372;13.610;2023-07-02T04:56:38;100213.34;;;17.16;80.30
80323;BME280;69636;52.372;13.610;2023-07-02T04:59:05;100210.28;;;17.13;80.13
80323;BME280;69636;52.372;13.610;2023-07-02T05:01:33;100220.56;;;17.16;80.10
80323;BME280;69636;52.372;13.610;2023-07-02T05:04:02;100226.75;;;17.23;80.17
80323;BME280;69636;52.372;13.610;2023-07-02T05:06:30;100229.66;;;17.28;80.31
80323;BME280;69636;52.372;13.610;2023-07-02T05:08:57;100229.66;;;17.21;79.94
80323;BME280;69636;52.372;13.610;2023-07-02T05:11:25;100230.91;;;17.19;80.03
80323;BME280;69636;52.372;13.610;2023-07-02T05:13:52;100237.06;;;17.26;79.86
80323;BME280;69636;52.372;13.610;2023-07-02T05:16:20;100232.94;;;17.30;79.35
80323;BME280;69636;52.372;13.610;2023-07-02T05:18:48;100232.47;;;17.46;79.27
80323;BME280;69636;52.372;13.610;2023-07-02T05:21:18;100229.59;;;17.48;78.34
80323;BME280;69636;52.372;13.610;2023-07-02T05:23:46;100233.69;;;17.57;78.06
80323;BME280;69636;52.372;13.610;2023-07-02T05:26:14;100236.19;;;17.58;78.05
80323;BME280;69636;52.372;13.610;2023-07-02T05:28:41;100222.91;;;17.77;77.07
80323;BME280;69636;52.372;13.610;2023-07-02T05:31:09;100224.13;;;17.87;76.46
80323;BME280;69636;52.372;13.610;2023-07-02T05:33:36;100234.88;;;17.87;76.16
80323;BME280;69636;52.372;13.610;2023-07-02T05:36:05;100239.16;;;17.95;75.62
80323;BME280;69636;52.372;13.610;2023-07-02T05:38:34;100240.94;;;18.14;75.11
80323;BME280;69636;52.372;13.610;2023-07-02T05:41:02;100244.69;;;18.45;74.41
80323;BME280;69636;52.372;13.610;2023-07-02T05:43:30;100232.78;;;18.59;74.36
80323;BME280;69636;52.372;13.610;2023-07-02T05:45:58;100243.25;;;18.42;73.68
80323;BME280;69636;52.372;13.610;2023-07-02T05:48:25;100245.97;;;18.36;73.53
80323;BME280;69636;52.372;13.610;2023-07-02T05:50:53;100244.69;;;18.07;72.91
80323;BME280;69636;52.372;13.610;2023-07-02T05:53:22;100254.66;;;17.93;74.00
80323;BME280;69636;52.372;13.610;2023-07-02T05:55:51;100260.88;;;17.87;74.45
80323;BME280;69636;52.372;13.610;2023-07-02T05:58:20;100271.22;;;17.90;74.08
80323;BME280;69636;52.372;13.610;2023-07-02T06:00:55;100266.63;;;17.97;74.54
80323;BME280;69636;52.372;13.610;2023-07-02T06:03:22;100267.22;;;17.99;73.84
80323;BME280;69636;52.372;13.610;2023-07-02T06:05:50;100274.81;;;18.15;73.16
80323;BME280;69636;52.372;13.610;2023-07-02T06:08:18;100270.34;;;17.96;73.24
80323;BME280;69636;52.372;13.610;2023-07-02T06:10:47;100269.50;;;17.95;73.43
80323;BME280;69636;52.372;13.610;2023-07-02T06:13:17;100264.13;;;17.95;71.90
80323;BME280;69636;52.372;13.610;2023-07-02T06:15:44;100268.44;;;18.10;71.87
80323;BME280;69636;52.372;13.610;2023-07-02T06:18:11;100270.56;;;18.33;71.45
80323;BME280;69636;52.372;13.610;2023-07-02T06:20:39;100265.63;;;18.29;71.51
80323;BME280;69636;52.372;13.610;2023-07-02T06:23:06;100274.13;;;18.26;70.64
80323;BME280;69636;52.372;13.610;2023-07-02T06:25:35;100275.50;;;18.42;68.88
80323;BME280;69636;52.372;13.610;2023-07-02T06:28:03;100270.25;;;18.85;68.82
80323;BME280;69636;52.372;13.610;2023-07-02T06:30:33;100248.94;;;19.09;68.19
80323;BME280;69636;52.372;13.610;2023-07-02T06:33:01;100254.06;;;19.35;66.15
80323;BME280;69636;52.372;13.610;2023-07-02T06:35:28;100253.19;;;19.41;66.09
80323;BME280;69636;52.372;13.610;2023-07-02T06:37:56;100263.75;;;19.61;64.82
80323;BME280;69636;52.372;13.610;2023-07-02T06:40:23;100267.44;;;19.67;63.77
80323;BME280;69636;52.372;13.610;2023-07-02T06:42:50;100270.63;;;19.75;64.04
80323;BME280;69636;52.372;13.610;2023-07-02T06:45:18;100275.13;;;19.63;63.35
80323;BME280;69636;52.372;13.610;2023-07-02T06:47:47;100267.13;;;19.56;63.19
80323;BME280;69636;52.372;13.610;2023-07-02T06:50:17;100253.44;;;19.15;63.29
80323;BME280;69636;52.372;13.610;2023-07-02T06:52:44;100249.59;;;18.79;64.71
80323;BME280;69636;52.372;13.610;2023-07-02T06:55:12;100246.38;;;18.95;64.60
80323;BME280;69636;52.372;13.610;2023-07-02T06:57:42;100259.91;;;19.07;64.21
80323;BME280;69636;52.372;13.610;2023-07-02T07:00:10;100256.75;;;19.35;63.65
80323;BME280;69636;52.372;13.610;2023-07-02T07:02:38;100261.97;;;19.73;62.89
80323;BME280;69636;52.372;13.610;2023-07-02T07:05:07;100265.66;;;20.09;63.12
80323;BME280;69636;52.372;13.610;2023-07-02T07:07:35;100261.31;;;20.26;61.80
80323;BME280;69636;52.372;13.610;2023-07-02T07:10:03;100262.38;;;20.37;59.22
80323;BME280;69636;52.372;13.610;2023-07-02T07:12:32;100270.06;;;20.21;59.72
80323;BME280;69636;52.372;13.610;2023-07-02T07:15:00;100258.31;;;20.16;59.88
80323;BME280;69636;52.372;13.610;2023-07-02T07:17:27;100267.34;;;20.40;59.99
80323;BME280;69636;52.372;13.610;2023-07-02T07:19:54;100267.50;;;20.26;60.06
80323;BME280;69636;52.372;13.610;2023-07-02T07:22:23;100267.50;;;20.26;59.12
80323;BME280;69636;52.372;13.610;2023-07-02T07:24:51;100261.91;;;20.10;59.48
80323;BME280;69636;52.372;13.610;2023-07-02T07:27:18;100255.16;;;19.89;61.02
80323;BME280;69636;52.372;13.610;2023-07-02T07:29:46;100267.88;;;19.63;61.56
80323;BME280;69636;52.372;13.610;2023-07-02T07:32:21;100265.19;;;19.63;60.48
80323;BME280;69636;52.372;13.610;2023-07-02T07:34:49;100261.13;;;19.54;60.29
80323;BME280;69636;52.372;13.610;2023-07-02T07:37:16;100262.03;;;19.67;61.11
80323;BME280;69636;52.372;13.610;2023-07-02T07:39:50;100266.53;;;19.91;60.03
80323;BME280;69636;52.372;13.610;2023-07-02T07:42:18;100263.75;;;20.27;60.84
80323;BME280;69636;52.372;13.610;2023-07-02T07:44:45;100254.91;;;20.39;59.21
80323;BME280;69636;52.372;13.610;2023-07-02T07:47:13;100256.00;;;20.19;59.58
80323;BME280;69636;52.372;13.610;2023-07-02T07:49:41;100269.97;;;20.28;59.40
80323;BME280;69636;52.372;13.610;2023-07-02T07:52:08;100268.72;;;20.12;59.86
80323;BME280;69636;52.372;13.610;2023-07-02T07:54:36;100277.28;;;19.91;60.36
80323;BME280;69636;52.372;13.610;2023-07-02T07:57:06;100291.94;;;19.58;59.93
80323;BME280;69636;52.372;13.610;2023-07-02T07:59:34;100287.19;;;19.36;60.54
80323;BME280;69636;52.372;13.610;2023-07-02T08:02:02;100288.59;;;19.20;61.07
80323;BME280;69636;52.372;13.610;2023-07-02T08:04:30;100300.47;;;19.30;62.11
80323;BME280;69636;52.372;13.610;2023-07-02T08:06:57;100304.59;;;19.33;61.73
80323;BME280;69636;52.372;13.610;2023-07-02T08:09:25;100302.25;;;19.43;61.97
80323;BME280;69636;52.372;13.610;2023-07-02T08:11:52;100302.22;;;19.68;60.98
80323;BME280;69636;52.372;13.610;2023-07-02T08:14:21;100303.53;;;19.59;60.09
80323;BME280;69636;52.372;13.610;2023-07-02T08:16:49;100303.16;;;19.55;60.89
80323;BME280;69636;52.372;13.610;2023-07-02T08:19:17;100299.72;;;19.48;59.99
80323;BME280;69636;52.372;13.610;2023-07-02T08:21:44;100299.53;;;19.43;60.55
80323;BME280;69636;52.372;13.610;2023-07-02T08:24:12;100300.03;;;19.33;61.07
80323;BME280;69636;52.372;13.610;2023-07-02T08:26:39;100308.84;;;19.22;62.01
80323;BME280;69636;52.372;13.610;2023-07-02T08:29:07;100304.88;;;19.00;62.20
80323;BME280;69636;52.372;13.610;2023-07-02T08:31:37;100303.44;;;18.97;61.16
80323;BME280;69636;52.372;13.610;2023-07-02T08:34:06;100311.63;;;18.84;61.87
80323;BME280;69636;52.372;13.610;2023-07-02T08:36:33;100307.84;;;18.92;62.75
80323;BME280;69636;52.372;13.610;2023-07-02T08:39:02;100303.69;;;18.96;62.84
80323;BME280;69636;52.372;13.610;2023-07-02T08:41:29;100313.16;;;18.98;62.28
80323;BME280;69636;52.372;13.610;2023-07-02T08:43:59;100313.28;;;18.85;61.66
80323;BME280;69636;52.372;13.610;2023-07-02T08:46:27;100325.16;;;18.71;62.11
80323;BME280;69636;52.372;13.610;2023-07-02T08:48:57;100330.81;;;18.56;61.67
80323;BME280;69636;52.372;13.610;2023-07-02T08:51:26;100337.72;;;18.39;63.33
80323;BME280;69636;52.372;13.610;2023-07-02T08:54:02;100348.81;;;18.05;64.67
80323;BME280;69636;52.372;13.610;2023-07-02T08:56:30;100356.75;;;17.73;65.16
80323;BME280;69636;52.372;13.610;2023-07-02T08:58:58;100366.44;;;17.41;65.52
80323;BME280;69636;52.372;13.610;2023-07-02T09:01:26;100357.19;;;17.24;67.18
80323;BME280;69636;52.372;13.610;2023-07-02T09:03:59;100344.19;;;17.08;69.91
80323;BME280;69636;52.372;13.610;2023-07-02T09:06:27;100341.09;;;17.04;70.30
80323;BME280;69636;52.372;13.610;2023-07-02T09:09:03;100345.59;;;16.90;70.39
80323;BME280;69636;52.372;13.610;2023-07-02T09:11:31;100347.47;;;16.83;70.18
80323;BME280;69636;52.372;13.610;2023-07-02T09:13:59;100341.91;;;16.85;70.89
80323;BME280;69636;52.372;13.610;2023-07-02T09:16:28;100339.81;;;16.80;71.43
80323;BME280;69636;52.372;13.610;2023-07-02T09:19:01;100343.09;;;16.76;72.06
80323;BME280;69636;52.372;13.610;2023-07-02T09:21:38;100339.41;;;16.77;72.89
80323;BME280;69636;52.372;13.610;2023-07-02T09:24:13;100345.59;;;16.84;72.85
80323;BME280;69636;52.372;13.610;2023-07-02T09:26:44;100349.13;;;16.98;72.78
80323;BME280;69636;52.372;13.610;2023-07-02T09:29:12;100344.38;;;17.00;70.96
80323;BME280;69636;52.372;13.610;2023-07-02T09:31:44;100348.53;;;17.09;71.16
80323;BME280;69636;52.372;13.610;2023-07-02T09:34:34;100356.34;;;17.17;71.62
80323;BME280;69636;52.372;13.610;2023-07-02T09:37:03;100345.81;;;17.15;70.54
80323;BME280;69636;52.372;13.610;2023-07-02T09:39:32;100354.28;;;17.25;69.88
80323;BME280;69636;52.372;13.610;2023-07-02T09:42:01;100352.03;;;17.29;70.12
80323;BME280;69636;52.372;13.610;2023-07-02T09:44:30;100353.84;;;17.42;69.89
80323;BME280;69636;52.372;13.610;2023-07-02T09:47:01;100352.63;;;17.57;69.25
80323;BME280;69636;52.372;13.610;2023-07-02T09:49:33;100360.06;;;17.69;68.83
80323;BME280;69636;52.372;13.610;2023-07-02T09:52:03;100354.47;;;17.90;68.72
80323;BME280;69636;52.372;13.610;2023-07-02T09:54:30;100359.56;;;18.11;68.29
80323;BME280;69636;52.372;13.610;2023-07-02T09:56:59;100359.75;;;18.16;67.30
80323;BME280;69636;52.372;13.610;2023-07-02T09:59:28;100361.75;;;18.27;67.89
80323;BME280;69636;52.372;13.610;2023-07-02T10:01:57;100363.38;;;18.35;68.08
80323;BME280;69636;52.372;13.610;2023-07-02T10:04:24;100359.78;;;18.61;67.54
80323;BME280;69636;52.372;13.610;2023-07-02T10:06:55;100354.31;;;18.74;66.98
80323;BME280;69636;52.372;13.610;2023-07-02T10:09:34;100357.94;;;18.93;67.16
80323;BME280;69636;52.372;13.610;2023-07-02T10:12:14;100357.00;;;19.06;65.51
80323;BME280;69636;52.372;13.610;2023-07-02T10:14:43;100353.50;;;18.98;66.08
80323;BME280;69636;52.372;13.610;2023-07-02T10:17:11;100346.22;;;19.06;65.14
80323;BME280;69636;52.372;13.610;2023-07-02T10:19:53;100348.00;;;19.43;65.35
80323;BME280;69636;52.372;13.610;2023-07-02T10:22:24;100347.63;;;19.83;62.87
80323;BME280;69636;52.372;13.610;2023-07-02T10:24:54;100347.25;;;21.06;59.11
80323;BME280;69636;52.372;13.610;2023-07-02T10:27:32;100351.47;;;21.55;56.19
80323;BME280;69636;52.372;13.610;2023-07-02T10:30:01;100356.03;;;21.78;55.67
80323;BME280;69636;52.372;13.610;2023-07-02T10:32:29;100354.63;;;21.40;54.63
80323;BME280;69636;52.372;13.610;2023-07-02T10:34:57;100359.47;;;21.50;53.56
80323;BME280;69636;52.372;13.610;2023-07-02T10:37:27;100350.59;;;22.13;51.53
80323;BME280;69636;52.372;13.610;2023-07-02T10:40:03;100351.97;;;22.27;49.99
80323;BME280;69636;52.372;13.610;2023-07-02T10:42:30;100341.00;;;22.62;49.86
80323;BME280;69636;52.372;13.610;2023-07-02T10:47:39;100327.25;;;23.25;49.95
80323;BME280;69636;52.372;13.610;2023-07-02T10:50:14;100336.94;;;23.05;50.35
80323;BME280;69636;52.372;13.610;2023-07-02T10:52:44;100336.50;;;22.79;51.13
80323;BME280;69636;52.372;13.610;2023-07-02T10:55:16;100334.16;;;22.71;50.19
80323;BME280;69636;52.372;13.610;2023-07-02T10:57:44;100333.91;;;23.34;49.89
80323;BME280;69636;52.372;13.610;2023-07-02T11:00:13;100334.50;;;22.75;50.24
80323;BME280;69636;52.372;13.610;2023-07-02T11:02:40;100338.38;;;22.79;52.50
80323;BME280;69636;52.372;13.610;2023-07-02T11:05:08;100337.94;;;23.32;48.68
80323;BME280;69636;52.372;13.610;2023-07-02T11:07:36;100330.88;;;23.64;47.80
80323;BME280;69636;52.372;13.610;2023-07-02T11:10:05;100332.06;;;23.40;50.63
80323;BME280;69636;52.372;13.610;2023-07-02T11:12:34;100335.97;;;23.61;48.38
80323;BME280;69636;52.372;13.610;2023-07-02T11:15:07;100323.00;;;23.29;48.57
80323;BME280;69636;52.372;13.610;2023-07-02T11:17:35;100322.03;;;22.74;50.01
80323;BME280;69636;52.372;13.610;2023-07-02T11:20:03;100332.88;;;21.93;51.39
80323;BME280;69636;52.372;13.610;2023-07-02T11:22:31;100331.47;;;21.91;52.15
80323;BME280;69636;52.372;13.610;2023-07-02T11:25:11;100345.47;;;21.76;52.05
80323;BME280;69636;52.372;13.610;2023-07-02T11:27:40;100339.63;;;20.91;54.19
80323;BME280;69636;52.372;13.610;2023-07-02T11:30:08;100342.47;;;20.66;55.39
80323;BME280;69636;52.372;13.610;2023-07-02T11:32:47;100344.50;;;20.71;54.02
80323;BME280;69636;52.372;13.610;2023-07-02T11:35:16;100335.09;;;21.85;49.46
80323;BME280;69636;52.372;13.610;2023-07-02T11:37:43;100328.88;;;22.64;46.18
80323;BME280;69636;52.372;13.610;2023-07-02T11:40:13;100328.66;;;23.28;43.62
80323;BME280;69636;52.372;13.610;2023-07-02T11:42:41;100331.25;;;24.17;43.21
80323;BME280;69636;52.372;13.610;2023-07-02T11:45:09;100342.91;;;24.17;42.20
80323;BME280;69636;52.372;13.610;2023-07-02T11:47:38;100326.50;;;23.13;43.22
80323;BME280;69636;52.372;13.610;2023-07-02T11:50:07;100334.50;;;22.75;43.61
80323;BME280;69636;52.372;13.610;2023-07-02T11:52:52;100331.44;;;23.16;42.37
80323;BME280;69636;52.372;13.610;2023-07-02T11:55:21;100336.13;;;22.59;42.46
80323;BME280;69636;52.372;13.610;2023-07-02T11:57:48;100338.50;;;23.17;40.96
80323;BME280;69636;52.372;13.610;2023-07-02T12:00:15;100341.28;;;24.60;39.57
80323;BME280;69636;52.372;13.610;2023-07-02T12:02:44;100340.84;;;24.68;38.14
80323;BME280;69636;52.372;13.610;2023-07-02T12:05:13;100346.44;;;24.88;38.54
80323;BME280;69636;52.372;13.610;2023-07-02T12:07:41;100356.44;;;24.83;39.21
80323;BME280;69636;52.372;13.610;2023-07-02T12:10:08;100367.41;;;24.93;38.33
80323;BME280;69636;52.372;13.610;2023-07-02T12:12:38;100357.16;;;24.73;38.32
80323;BME280;69636;52.372;13.610;2023-07-02T12:15:06;100359.38;;;25.03;38.19
80323;BME280;69636;52.372;13.610;2023-07-02T12:17:37;100366.47;;;24.82;36.89
80323;BME280;69636;52.372;13.610;2023-07-02T12:20:06;100365.06;;;23.87;39.16
80323;BME280;69636;52.372;13.610;2023-07-02T12:22:34;100368.47;;;23.99;38.05
80323;BME280;69636;52.372;13.610;2023-07-02T12:25:01;100356.41;;;24.29;37.63
80323;BME280;69636;52.372;13.610;2023-07-02T12:27:29;100361.50;;;24.74;36.38
80323;BME280;69636;52.372;13.610;2023-07-02T12:29:58;100356.25;;;25.16;34.14
80323;BME280;69636;52.372;13.610;2023-07-02T12:32:26;100354.91;;;24.65;32.56
80323;BME280;69636;52.372;13.610;2023-07-02T12:34:53;100348.66;;;24.38;32.85
80323;BME280;69636;52.372;13.610;2023-07-02T12:37:22;100344.22;;;24.31;33.41
80323;BME280;69636;52.372;13.610;2023-07-02T12:39:49;100351.38;;;24.21;34.08
80323;BME280;69636;52.372;13.610;2023-07-02T12:42:17;100358.44;;;24.39;33.84
80323;BME280;69636;52.372;13.610;2023-07-02T12:44:44;100363.00;;;24.16;34.93
80323;BME280;69636;52.372;13.610;2023-07-02T12:47:14;100359.69;;;23.54;35.14
80323;BME280;69636;52.372;13.610;2023-07-02T12:49:41;100362.41;;;23.92;34.80
80323;BME280;69636;52.372;13.610;2023-07-02T12:52:09;100354.47;;;24.08;33.27